sensor_id;sensor_type;location;lat;lon;timestamp;temperature;humidity
21676;DHT22;10999;51.332;9.458;2022-07-29T00:02:18;17.80;33.00
21676;DHT22;10999;51.332;9.458;2022-07-29T00:04:45;17.80;33.60
21676;DHT22;10999;51.332;9.458;2022-07-29T00:07:12;17.80;34.70
21676;DHT22;10999;51.332;9.458;2022-07-29T00:09:39;17.80;34.90
21676;DHT22;10999;51.332;9.458;2022-07-29T00:12:17;17.70;35.60
21676;DHT22;10999;51.332;9.458;2022-07-29T00:14:52;17.70;35.80
21676;DHT22;10999;51.332;9.458;2022-07-29T00:17:19;17.70;35.70
21676;DHT22;10999;51.332;9.458;2022-07-29T00:19:45;17.60;35.50
21676;DHT22;10999;51.332;9.458;2022-07-29T00:22:12;17.70;35.30
21676;DHT22;10999;51.332;9.458;2022-07-29T00:24:39;17.60;35.80
21676;DHT22;10999;51.332;9.458;2022-07-29T00:27:06;17.60;35.90
21676;DHT22;10999;51.332;9.458;2022-07-29T00:29:32;17.60;35.50
21676;DHT22;10999;51.332;9.458;2022-07-29T00:32:01;17.60;36.10
21676;DHT22;10999;51.332;9.458;2022-07-29T00:34:28;17.60;35.70
21676;DHT22;10999;51.332;9.458;2022-07-29T00:37:13;17.60;35.40
21676;DHT22;10999;51.332;9.458;2022-07-29T00:39:40;17.60;35.10
21676;DHT22;10999;51.332;9.458;2022-07-29T00:42:07;17.50;36.00
21676;DHT22;10999;51.332;9.458;2022-07-29T00:44:38;17.50;35.50
21676;DHT22;10999;51.332;9.458;2022-07-29T00:47:06;17.50;35.60
21676;DHT22;10999;51.332;9.458;2022-07-29T00:49:34;17.50;35.40
21676;DHT22;10999;51.332;9.458;2022-07-29T00:52:03;17.50;36.20
21676;DHT22;10999;51.332;9.458;2022-07-29T00:54:30;17.50;35.70
21676;DHT22;10999;51.332;9.458;2022-07-29T00:57:00;17.50;35.30
21676;DHT22;10999;51.332;9.458;2022-07-29T00:59:28;17.50;35.50
21676;DHT22;10999;51.332;9.458;2022-07-29T01:02:04;17.50;34.90
21676;DHT22;10999;51.332;9.458;2022-07-29T01:04:31;17.50;35.20
21676;DHT22;10999;51.332;9.458;2022-07-29T01:07:02;17.50;35.00
21676;DHT22;10999;51.332;9.458;2022-07-29T01:09:34;17.50;35.50
21676;DHT22;10999;51.332;9.458;2022-07-29T01:12:16;17.40;35.80
21676;DHT22;10999;51.332;9.458;2022-07-29T01:14:44;17.40;35.70
21676;DHT22;10999;51.332;9.458;2022-07-29T01:17:17;17.40;35.30
21676;DHT22;10999;51.332;9.458;2022-07-29T01:20:25;17.40;35.60
21676;DHT22;10999;51.332;9.458;2022-07-29T01:31:22;17.30;35.80
21676;DHT22;10999;51.332;9.458;2022-07-29T01:34:01;17.30;36.50
21676;DHT22;10999;51.332;9.458;2022-07-29T01:36:45;17.30;37.00
21676;DHT22;10999;51.332;9.458;2022-07-29T01:39:25;17.30;36.80
21676;DHT22;10999;51.332;9.458;2022-07-29T01:42:05;17.30;36.80
21676;DHT22;10999;51.332;9.458;2022-07-29T01:45:02;17.20;37.20
21676;DHT22;10999;51.332;9.458;2022-07-29T01:47:44;17.20;37.10
21676;DHT22;10999;51.332;9.458;2022-07-29T01:50:16;17.20;36.80
21676;DHT22;10999;51.332;9.458;2022-07-29T01:52:49;17.20;36.70
21676;DHT22;10999;51.332;9.458;2022-07-29T01:55:20;17.20;36.70
21676;DHT22;10999;51.332;9.458;2022-07-29T01:57:50;17.10;37.50
21676;DHT22;10999;51.332;9.458;2022-07-29T02:00:19;17.10;37.80
21676;DHT22;10999;51.332;9.458;2022-07-29T02:02:47;17.10;37.30
21676;DHT22;10999;51.332;9.458;2022-07-29T02:05:17;17.10;37.50
21676;DHT22;10999;51.332;9.458;2022-07-29T02:07:46;17.10;37.40
21676;DHT22;10999;51.332;9.458;2022-07-29T02:10:14;17.10;37.70
21676;DHT22;10999;51.332;9.458;2022-07-29T02:12:45;17.00;37.30
21676;DHT22;10999;51.332;9.458;2022-07-29T02:15:17;17.00;37.30
21676;DHT22;10999;51.332;9.458;2022-07-29T02:17:49;17.00;37.90
21676;DHT22;10999;51.332;9.458;2022-07-29T02:20:17;16.90;38.80
21676;DHT22;10999;51.332;9.458;2022-07-29T02:22:44;17.00;38.40
21676;DHT22;10999;51.332;9.458;2022-07-29T02:25:14;16.90;39.40
21676;DHT22;10999;51.332;9.458;2022-07-29T02:27:43;16.90;39.70
21676;DHT22;10999;51.332;9.458;2022-07-29T02:30:11;16.80;39.20
21676;DHT22;10999;51.332;9.458;2022-07-29T02:32:40;16.80;38.90
21676;DHT22;10999;51.332;9.458;2022-07-29T02:35:09;16.80;38.50
21676;DHT22;10999;51.332;9.458;2022-07-29T02:37:36;16.80;38.30
21676;DHT22;10999;51.332;9.458;2022-07-29T02:40:04;16.80;39.20
21676;DHT22;10999;51.332;9.458;2022-07-29T02:42:32;16.90;38.50
21676;DHT22;10999;51.332;9.458;2022-07-29T02:45:03;16.80;38.60
21676;DHT22;10999;51.332;9.458;2022-07-29T02:47:34;16.80;39.20
21676;DHT22;10999;51.332;9.458;2022-07-29T02:50:21;16.80;38.70
21676;DHT22;10999;51.332;9.458;2022-07-29T02:53:28;16.80;39.90
21676;DHT22;10999;51.332;9.458;2022-07-29T02:56:00;16.70;40.30
21676;DHT22;10999;51.332;9.458;2022-07-29T02:58:31;16.70;40.60
21676;DHT22;10999;51.332;9.458;2022-07-29T03:01:02;16.70;41.00
21676;DHT22;10999;51.332;9.458;2022-07-29T03:03:36;16.60;40.20
21676;DHT22;10999;51.332;9.458;2022-07-29T03:06:03;16.60;40.10
21676;DHT22;10999;51.332;9.458;2022-07-29T03:08:32;16.60;39.20
21676;DHT22;10999;51.332;9.458;2022-07-29T03:11:00;16.60;39.80
21676;DHT22;10999;51.332;9.458;2022-07-29T03:13:29;16.60;39.10
21676;DHT22;10999;51.332;9.458;2022-07-29T03:15:57;16.60;40.10
21676;DHT22;10999;51.332;9.458;2022-07-29T03:18:25;16.60;40.80
21676;DHT22;10999;51.332;9.458;2022-07-29T03:20:52;16.60;41.00
21676;DHT22;10999;51.332;9.458;2022-07-29T03:23:23;16.50;41.20
21676;DHT22;10999;51.332;9.458;2022-07-29T03:25:50;16.50;42.00
21676;DHT22;10999;51.332;9.458;2022-07-29T03:28:17;16.50;42.00
21676;DHT22;10999;51.332;9.458;2022-07-29T03:30:45;16.50;42.20
21676;DHT22;10999;51.332;9.458;2022-07-29T03:33:12;16.40;41.70
21676;DHT22;10999;51.332;9.458;2022-07-29T03:35:39;16.40;42.20
21676;DHT22;10999;51.332;9.458;2022-07-29T03:38:06;16.40;43.30
21676;DHT22;10999;51.332;9.458;2022-07-29T03:40:56;16.40;42.80
21676;DHT22;10999;51.332;9.458;2022-07-29T03:43:25;16.40;43.70
21676;DHT22;10999;51.332;9.458;2022-07-29T03:45:55;16.30;43.70
21676;DHT22;10999;51.332;9.458;2022-07-29T03:48:24;16.30;43.40
21676;DHT22;10999;51.332;9.458;2022-07-29T03:50:51;16.30;43.40
21676;DHT22;10999;51.332;9.458;2022-07-29T03:53:18;16.40;44.00
21676;DHT22;10999;51.332;9.458;2022-07-29T03:55:47;16.30;43.80
21676;DHT22;10999;51.332;9.458;2022-07-29T03:58:15;16.40;43.80
21676;DHT22;10999;51.332;9.458;2022-07-29T04:00:43;16.40;43.40
21676;DHT22;10999;51.332;9.458;2022-07-29T04:03:10;16.30;43.70
21676;DHT22;10999;51.332;9.458;2022-07-29T04:05:38;16.40;43.70
21676;DHT22;10999;51.332;9.458;2022-07-29T04:08:05;16.40;43.40
21676;DHT22;10999;51.332;9.458;2022-07-29T04:10:32;16.40;42.80
21676;DHT22;10999;51.332;9.458;2022-07-29T04:13:01;16.50;43.60
21676;DHT22;10999;51.332;9.458;2022-07-29T04:15:28;16.50;44.40
21676;DHT22;10999;51.332;9.458;2022-07-29T04:17:57;16.50;44.20
21676;DHT22;10999;51.332;9.458;2022-07-29T04:20:24;16.50;44.30
21676;DHT22;10999;51.332;9.458;2022-07-29T04:22:50;16.50;44.90
21676;DHT22;10999;51.332;9.458;2022-07-29T04:25:17;16.50;46.10
21676;DHT22;10999;51.332;9.458;2022-07-29T04:27:44;16.50;46.00
21676;DHT22;10999;51.332;9.458;2022-07-29T04:30:37;16.50;47.20
21676;DHT22;10999;51.332;9.458;2022-07-29T04:33:06;16.50;48.10
21676;DHT22;10999;51.332;9.458;2022-07-29T04:35:37;16.50;47.70
21676;DHT22;10999;51.332;9.458;2022-07-29T04:38:17;16.50;48.20
21676;DHT22;10999;51.332;9.458;2022-07-29T04:40:44;16.40;48.30
21676;DHT22;10999;51.332;9.458;2022-07-29T04:43:15;16.50;47.80
21676;DHT22;10999;51.332;9.458;2022-07-29T04:45:48;16.50;48.10
21676;DHT22;10999;51.332;9.458;2022-07-29T04:48:14;16.50;49.10
21676;DHT22;10999;51.332;9.458;2022-07-29T04:50:41;16.50;49.20
21676;DHT22;10999;51.332;9.458;2022-07-29T04:53:08;16.50;47.80
21676;DHT22;10999;51.332;9.458;2022-07-29T04:55:35;16.60;46.60
21676;DHT22;10999;51.332;9.458;2022-07-29T04:58:04;16.60;45.60
21676;DHT22;10999;51.332;9.458;2022-07-29T05:00:31;16.70;47.00
21676;DHT22;10999;51.332;9.458;2022-07-29T05:02:59;16.70;46.90
21676;DHT22;10999;51.332;9.458;2022-07-29T05:05:26;16.80;46.20
21676;DHT22;10999;51.332;9.458;2022-07-29T05:07:52;16.80;45.50
21676;DHT22;10999;51.332;9.458;2022-07-29T05:10:19;16.90;45.30
21676;DHT22;10999;51.332;9.458;2022-07-29T05:12:46;17.00;45.70
21676;DHT22;10999;51.332;9.458;2022-07-29T05:15:13;17.00;46.60
21676;DHT22;10999;51.332;9.458;2022-07-29T05:17:40;17.00;46.70
21676;DHT22;10999;51.332;9.458;2022-07-29T05:20:07;17.10;47.00
21676;DHT22;10999;51.332;9.458;2022-07-29T05:22:34;17.20;48.50
21676;DHT22;10999;51.332;9.458;2022-07-29T05:25:01;17.20;48.90
21676;DHT22;10999;51.332;9.458;2022-07-29T05:27:35;17.30;48.60
21676;DHT22;10999;51.332;9.458;2022-07-29T05:30:02;17.30;44.40
21676;DHT22;10999;51.332;9.458;2022-07-29T05:32:29;17.30;45.80
21676;DHT22;10999;51.332;9.458;2022-07-29T05:34:56;17.40;47.80
21676;DHT22;10999;51.332;9.458;2022-07-29T05:37:22;17.40;45.10
21676;DHT22;10999;51.332;9.458;2022-07-29T05:39:50;17.40;43.40
21676;DHT22;10999;51.332;9.458;2022-07-29T05:42:26;17.40;45.70
21676;DHT22;10999;51.332;9.458;2022-07-29T05:44:53;17.40;47.50
21676;DHT22;10999;51.332;9.458;2022-07-29T05:47:19;17.50;47.50
21676;DHT22;10999;51.332;9.458;2022-07-29T05:49:46;17.50;48.20
21676;DHT22;10999;51.332;9.458;2022-07-29T05:52:13;17.50;49.80
21676;DHT22;10999;51.332;9.458;2022-07-29T05:54:40;17.50;49.00
21676;DHT22;10999;51.332;9.458;2022-07-29T05:57:07;17.50;45.70
21676;DHT22;10999;51.332;9.458;2022-07-29T05:59:37;17.40;45.00
21676;DHT22;10999;51.332;9.458;2022-07-29T06:02:04;17.40;46.30
21676;DHT22;10999;51.332;9.458;2022-07-29T06:04:34;17.40;46.80
21676;DHT22;10999;51.332;9.458;2022-07-29T06:07:00;17.40;48.90
21676;DHT22;10999;51.332;9.458;2022-07-29T06:09:28;17.40;45.10
21676;DHT22;10999;51.332;9.458;2022-07-29T06:11:55;17.40;44.40
21676;DHT22;10999;51.332;9.458;2022-07-29T06:14:22;17.40;45.10
21676;DHT22;10999;51.332;9.458;2022-07-29T06:16:48;17.40;45.00
21676;DHT22;10999;51.332;9.458;2022-07-29T06:19:16;17.40;43.90
21676;DHT22;10999;51.332;9.458;2022-07-29T06:21:43;17.50;47.50
21676;DHT22;10999;51.332;9.458;2022-07-29T06:24:14;17.50;47.90
21676;DHT22;10999;51.332;9.458;2022-07-29T06:26:42;17.60;48.70
21676;DHT22;10999;51.332;9.458;2022-07-29T06:29:09;17.60;49.00
21676;DHT22;10999;51.332;9.458;2022-07-29T06:31:39;17.60;48.80
21676;DHT22;10999;51.332;9.458;2022-07-29T06:34:06;17.70;48.00
21676;DHT22;10999;51.332;9.458;2022-07-29T06:36:37;17.80;47.30
21676;DHT22;10999;51.332;9.458;2022-07-29T06:39:08;17.80;45.70
21676;DHT22;10999;51.332;9.458;2022-07-29T06:41:37;17.80;43.50
21676;DHT22;10999;51.332;9.458;2022-07-29T06:44:03;17.90;42.60
21676;DHT22;10999;51.332;9.458;2022-07-29T06:46:31;17.90;42.90
21676;DHT22;10999;51.332;9.458;2022-07-29T06:48:58;17.90;42.30
21676;DHT22;10999;51.332;9.458;2022-07-29T06:51:28;17.90;44.00
21676;DHT22;10999;51.332;9.458;2022-07-29T06:53:55;17.90;40.80
21676;DHT22;10999;51.332;9.458;2022-07-29T06:56:30;18.00;42.70
21676;DHT22;10999;51.332;9.458;2022-07-29T06:59:05;17.90;41.70
21676;DHT22;10999;51.332;9.458;2022-07-29T07:01:32;18.00;40.90
21676;DHT22;10999;51.332;9.458;2022-07-29T07:03:59;18.00;42.70
21676;DHT22;10999;51.332;9.458;2022-07-29T07:06:27;18.00;44.10
21676;DHT22;10999;51.332;9.458;2022-07-29T07:08:54;18.00;44.50
21676;DHT22;10999;51.332;9.458;2022-07-29T07:11:22;18.00;45.40
21676;DHT22;10999;51.332;9.458;2022-07-29T07:13:49;18.00;43.10
21676;DHT22;10999;51.332;9.458;2022-07-29T07:16:16;18.10;44.00
21676;DHT22;10999;51.332;9.458;2022-07-29T07:18:43;18.10;45.10
21676;DHT22;10999;51.332;9.458;2022-07-29T07:21:13;18.10;47.30
21676;DHT22;10999;51.332;9.458;2022-07-29T07:23:45;18.10;47.10
21676;DHT22;10999;51.332;9.458;2022-07-29T07:26:12;18.10;46.30
21676;DHT22;10999;51.332;9.458;2022-07-29T07:28:39;18.10;46.40
21676;DHT22;10999;51.332;9.458;2022-07-29T07:31:06;18.00;47.20
21676;DHT22;10999;51.332;9.458;2022-07-29T07:33:33;18.00;45.40
21676;DHT22;10999;51.332;9.458;2022-07-29T07:36:00;18.00;46.40
21676;DHT22;10999;51.332;9.458;2022-07-29T07:38:28;18.00;47.50
21676;DHT22;10999;51.332;9.458;2022-07-29T07:40:56;18.00;48.30
21676;DHT22;10999;51.332;9.458;2022-07-29T07:43:23;18.00;47.00
21676;DHT22;10999;51.332;9.458;2022-07-29T07:45:49;17.90;46.80
21676;DHT22;10999;51.332;9.458;2022-07-29T07:48:16;18.00;47.70
21676;DHT22;10999;51.332;9.458;2022-07-29T07:50:43;17.90;49.00
21676;DHT22;10999;51.332;9.458;2022-07-29T07:53:10;17.90;49.80
21676;DHT22;10999;51.332;9.458;2022-07-29T07:55:43;17.90;50.00
21676;DHT22;10999;51.332;9.458;2022-07-29T07:58:30;17.90;53.00
21676;DHT22;10999;51.332;9.458;2022-07-29T08:00:56;17.90;55.10
21676;DHT22;10999;51.332;9.458;2022-07-29T08:03:23;17.90;56.00
21676;DHT22;10999;51.332;9.458;2022-07-29T08:05:50;17.90;57.80
21676;DHT22;10999;51.332;9.458;2022-07-29T08:08:18;17.90;57.70
21676;DHT22;10999;51.332;9.458;2022-07-29T08:10:44;17.80;58.10
21676;DHT22;10999;51.332;9.458;2022-07-29T08:13:24;17.80;58.50
21676;DHT22;10999;51.332;9.458;2022-07-29T08:15:52;17.80;61.00
21676;DHT22;10999;51.332;9.458;2022-07-29T08:18:26;17.70;63.80
21676;DHT22;10999;51.332;9.458;2022-07-29T08:20:53;17.70;64.60
21676;DHT22;10999;51.332;9.458;2022-07-29T08:23:20;17.60;65.90
21676;DHT22;10999;51.332;9.458;2022-07-29T08:25:47;17.60;68.10
21676;DHT22;10999;51.332;9.458;2022-07-29T08:28:16;17.70;70.20
21676;DHT22;10999;51.332;9.458;2022-07-29T08:30:43;17.70;73.10
21676;DHT22;10999;51.332;9.458;2022-07-29T08:33:10;17.80;73.50
21676;DHT22;10999;51.332;9.458;2022-07-29T08:35:38;17.90;74.80
21676;DHT22;10999;51.332;9.458;2022-07-29T08:38:05;17.90;75.70
21676;DHT22;10999;51.332;9.458;2022-07-29T08:40:32;18.00;74.40
21676;DHT22;10999;51.332;9.458;2022-07-29T08:43:06;18.00;73.60
21676;DHT22;10999;51.332;9.458;2022-07-29T08:45:50;17.90;71.50
21676;DHT22;10999;51.332;9.458;2022-07-29T08:48:23;17.90;70.70
21676;DHT22;10999;51.332;9.458;2022-07-29T08:50:55;17.80;69.80
21676;DHT22;10999;51.332;9.458;2022-07-29T08:53:22;17.80;70.50
21676;DHT22;10999;51.332;9.458;2022-07-29T08:55:50;17.70;70.70
21676;DHT22;10999;51.332;9.458;2022-07-29T08:58:17;17.70;71.00
21676;DHT22;10999;51.332;9.458;2022-07-29T09:00:53;17.70;71.90
21676;DHT22;10999;51.332;9.458;2022-07-29T09:03:24;17.70;73.40
21676;DHT22;10999;51.332;9.458;2022-07-29T09:05:52;17.70;73.30
21676;DHT22;10999;51.332;9.458;2022-07-29T09:08:20;17.80;70.60
21676;DHT22;10999;51.332;9.458;2022-07-29T09:10:47;18.00;70.30
21676;DHT22;10999;51.332;9.458;2022-07-29T09:13:15;18.20;70.70
21676;DHT22;10999;51.332;9.458;2022-07-29T09:15:42;18.40;68.30
21676;DHT22;10999;51.332;9.458;2022-07-29T09:18:10;18.60;63.20
21676;DHT22;10999;51.332;9.458;2022-07-29T09:20:56;18.80;63.20
21676;DHT22;10999;51.332;9.458;2022-07-29T09:23:48;19.00;60.20
21676;DHT22;10999;51.332;9.458;2022-07-29T09:26:34;19.10;60.80
21676;DHT22;10999;51.332;9.458;2022-07-29T09:29:15;19.00;59.30
21676;DHT22;10999;51.332;9.458;2022-07-29T09:31:48;19.00;59.20
21676;DHT22;10999;51.332;9.458;2022-07-29T09:34:24;19.00;62.30
21676;DHT22;10999;51.332;9.458;2022-07-29T09:36:52;19.10;64.20
21676;DHT22;10999;51.332;9.458;2022-07-29T09:39:40;19.20;62.00
21676;DHT22;10999;51.332;9.458;2022-07-29T09:42:13;19.30;58.70
21676;DHT22;10999;51.332;9.458;2022-07-29T09:44:47;19.40;59.00
21676;DHT22;10999;51.332;9.458;2022-07-29T09:47:18;19.60;58.10
21676;DHT22;10999;51.332;9.458;2022-07-29T09:49:58;20.00;55.80
21676;DHT22;10999;51.332;9.458;2022-07-29T09:52:28;20.50;57.30
21676;DHT22;10999;51.332;9.458;2022-07-29T09:55:06;20.90;54.30
21676;DHT22;10999;51.332;9.458;2022-07-29T09:57:33;21.10;45.00
21676;DHT22;10999;51.332;9.458;2022-07-29T10:00:11;21.20;43.50
21676;DHT22;10999;51.332;9.458;2022-07-29T10:02:41;21.40;41.00
21676;DHT22;10999;51.332;9.458;2022-07-29T10:05:25;21.60;39.10
21676;DHT22;10999;51.332;9.458;2022-07-29T10:08:02;22.10;42.90
21676;DHT22;10999;51.332;9.458;2022-07-29T10:10:31;22.50;36.30
21676;DHT22;10999;51.332;9.458;2022-07-29T10:13:09;22.80;31.90
21676;DHT22;10999;51.332;9.458;2022-07-29T10:15:43;22.90;32.60
21676;DHT22;10999;51.332;9.458;2022-07-29T10:18:13;23.10;32.10
21676;DHT22;10999;51.332;9.458;2022-07-29T10:20:40;23.10;28.30
21676;DHT22;10999;51.332;9.458;2022-07-29T10:23:08;22.90;30.40
21676;DHT22;10999;51.332;9.458;2022-07-29T10:25:35;22.70;31.00
21676;DHT22;10999;51.332;9.458;2022-07-29T10:28:03;22.80;33.70
21676;DHT22;10999;51.332;9.458;2022-07-29T10:30:32;23.00;33.90
21676;DHT22;10999;51.332;9.458;2022-07-29T10:44:21;23.90;29.90
21676;DHT22;10999;51.332;9.458;2022-07-29T10:46:50;24.10;28.10
21676;DHT22;10999;51.332;9.458;2022-07-29T10:49:23;24.20;25.60
21676;DHT22;10999;51.332;9.458;2022-07-29T10:54:37;24.20;26.50
21676;DHT22;10999;51.332;9.458;2022-07-29T10:57:16;24.10;26.60
21676;DHT22;10999;51.332;9.458;2022-07-29T10:59:48;24.20;26.80
21676;DHT22;10999;51.332;9.458;2022-07-29T11:05:10;24.90;25.10
21676;DHT22;10999;51.332;9.458;2022-07-29T11:07:40;25.00;23.60
21676;DHT22;10999;51.332;9.458;2022-07-29T11:12:47;25.60;24.50
21676;DHT22;10999;51.332;9.458;2022-07-29T11:15:15;25.90;24.80
21676;DHT22;10999;51.332;9.458;2022-07-29T11:20:44;26.20;20.00
21676;DHT22;10999;51.332;9.458;2022-07-29T11:29:03;26.20;21.20
21676;DHT22;10999;51.332;9.458;2022-07-29T11:31:34;26.50;20.80
21676;DHT22;10999;51.332;9.458;2022-07-29T11:47:55;26.50;17.10
21676;DHT22;10999;51.332;9.458;2022-07-29T11:50:47;26.40;16.70
21676;DHT22;10999;51.332;9.458;2022-07-29T11:53:15;26.50;18.00
21676;DHT22;10999;51.332;9.458;2022-07-29T11:55:42;26.50;16.50
21676;DHT22;10999;51.332;9.458;2022-07-29T11:58:21;26.40;16.10
21676;DHT22;10999;51.332;9.458;2022-07-29T12:00:50;26.50;16.40
21676;DHT22;10999;51.332;9.458;2022-07-29T12:03:25;26.70;18.50
21676;DHT22;10999;51.332;9.458;2022-07-29T12:06:04;27.10;17.20
21676;DHT22;10999;51.332;9.458;2022-07-29T12:08:40;27.20;16.70
21676;DHT22;10999;51.332;9.458;2022-07-29T12:11:19;27.30;15.80
21676;DHT22;10999;51.332;9.458;2022-07-29T12:13:50;27.10;16.70
21676;DHT22;10999;51.332;9.458;2022-07-29T12:16:17;26.90;15.70
21676;DHT22;10999;51.332;9.458;2022-07-29T12:18:59;26.50;16.60
21676;DHT22;10999;51.332;9.458;2022-07-29T12:21:47;26.30;17.10
21676;DHT22;10999;51.332;9.458;2022-07-29T12:24:23;26.20;15.40
21676;DHT22;10999;51.332;9.458;2022-07-29T12:26:55;26.40;17.00
21676;DHT22;10999;51.332;9.458;2022-07-29T12:29:22;26.40;16.70
21676;DHT22;10999;51.332;9.458;2022-07-29T12:32:01;26.60;16.90
21676;DHT22;10999;51.332;9.458;2022-07-29T12:34:29;26.90;17.10
21676;DHT22;10999;51.332;9.458;2022-07-29T12:36:58;27.20;14.80
21676;DHT22;10999;51.332;9.458;2022-07-29T12:39:29;27.30;13.90
21676;DHT22;10999;51.332;9.458;2022-07-29T12:41:56;27.50;13.80
21676;DHT22;10999;51.332;9.458;2022-07-29T12:44:49;27.60;14.70
21676;DHT22;10999;51.332;9.458;2022-07-29T12:47:17;27.50;13.00
21676;DHT22;10999;51.332;9.458;2022-07-29T12:49:45;27.60;13.40
21676;DHT22;10999;51.332;9.458;2022-07-29T12:52:33;27.70;14.20
21676;DHT22;10999;51.332;9.458;2022-07-29T12:55:04;27.80;11.10
21676;DHT22;10999;51.332;9.458;2022-07-29T12:57:31;27.90;11.60
21676;DHT22;10999;51.332;9.458;2022-07-29T13:00:09;27.90;11.30
21676;DHT22;10999;51.332;9.458;2022-07-29T13:02:38;28.10;11.80
21676;DHT22;10999;51.332;9.458;2022-07-29T13:05:06;28.00;12.20
21676;DHT22;10999;51.332;9.458;2022-07-29T13:07:35;27.80;11.40
21676;DHT22;10999;51.332;9.458;2022-07-29T13:10:23;27.70;11.90
21676;DHT22;10999;51.332;9.458;2022-07-29T13:13:09;27.60;13.10
21676;DHT22;10999;51.332;9.458;2022-07-29T13:15:42;27.60;11.20
21676;DHT22;10999;51.332;9.458;2022-07-29T13:18:32;27.60;12.00
21676;DHT22;10999;51.332;9.458;2022-07-29T13:21:14;27.40;12.20
21676;DHT22;10999;51.332;9.458;2022-07-29T13:23:42;27.60;11.80
21676;DHT22;10999;51.332;9.458;2022-07-29T13:26:10;27.90;11.00
21676;DHT22;10999;51.332;9.458;2022-07-29T13:28:42;28.10;11.70
21676;DHT22;10999;51.332;9.458;2022-07-29T13:31:10;28.20;9.90
21676;DHT22;10999;51.332;9.458;2022-07-29T13:33:36;28.40;10.30
21676;DHT22;10999;51.332;9.458;2022-07-29T13:36:03;28.60;10.70
21676;DHT22;10999;51.332;9.458;2022-07-29T13:38:30;28.60;9.80
21676;DHT22;10999;51.332;9.458;2022-07-29T13:40:57;28.70;9.30
21676;DHT22;10999;51.332;9.458;2022-07-29T13:43:24;28.60;10.80
21676;DHT22;10999;51.332;9.458;2022-07-29T13:45:51;28.50;9.90
21676;DHT22;10999;51.332;9.458;2022-07-29T13:48:18;28.50;10.00
21676;DHT22;10999;51.332;9.458;2022-07-29T13:50:45;28.40;8.40
21676;DHT22;10999;51.332;9.458;2022-07-29T13:53:13;28.70;10.00
21676;DHT22;10999;51.332;9.458;2022-07-29T13:55:43;28.50;8.40
21676;DHT22;10999;51.332;9.458;2022-07-29T13:58:10;28.40;10.20
21676;DHT22;10999;51.332;9.458;2022-07-29T14:00:37;28.40;9.60
21676;DHT22;10999;51.332;9.458;2022-07-29T14:03:04;28.50;9.80
21676;DHT22;10999;51.332;9.458;2022-07-29T14:05:30;28.60;10.30
21676;DHT22;10999;51.332;9.458;2022-07-29T14:07:57;28.80;10.30
21676;DHT22;10999;51.332;9.458;2022-07-29T14:10:24;29.00;9.20
21676;DHT22;10999;51.332;9.458;2022-07-29T14:12:51;29.00;9.00
21676;DHT22;10999;51.332;9.458;2022-07-29T14:15:18;28.90;10.10
21676;DHT22;10999;51.332;9.458;2022-07-29T14:17:45;28.60;8.80
21676;DHT22;10999;51.332;9.458;2022-07-29T14:20:12;28.60;10.70
21676;DHT22;10999;51.332;9.458;2022-07-29T14:22:38;28.30;10.60
21676;DHT22;10999;51.332;9.458;2022-07-29T14:25:10;28.00;10.50
21676;DHT22;10999;51.332;9.458;2022-07-29T14:27:41;27.80;10.00
21676;DHT22;10999;51.332;9.458;2022-07-29T14:30:09;27.70;11.30
21676;DHT22;10999;51.332;9.458;2022-07-29T14:32:36;27.60;11.00
21676;DHT22;10999;51.332;9.458;2022-07-29T14:35:05;27.70;12.10
21676;DHT22;10999;51.332;9.458;2022-07-29T14:37:32;27.80;12.80
21676;DHT22;10999;51.332;9.458;2022-07-29T14:40:07;27.80;12.40
21676;DHT22;10999;51.332;9.458;2022-07-29T14:42:34;27.90;12.60
21676;DHT22;10999;51.332;9.458;2022-07-29T14:45:00;28.10;12.60
21676;DHT22;10999;51.332;9.458;2022-07-29T14:47:28;28.10;12.40
21676;DHT22;10999;51.332;9.458;2022-07-29T14:49:55;28.20;11.80
21676;DHT22;10999;51.332;9.458;2022-07-29T14:52:22;28.20;10.70
21676;DHT22;10999;51.332;9.458;2022-07-29T14:54:49;28.20;12.20
21676;DHT22;10999;51.332;9.458;2022-07-29T14:57:15;28.30;11.10
21676;DHT22;10999;51.332;9.458;2022-07-29T14:59:42;28.30;12.60
21676;DHT22;10999;51.332;9.458;2022-07-29T15:02:09;28.40;10.30
21676;DHT22;10999;51.332;9.458;2022-07-29T15:04:36;28.60;10.50
21676;DHT22;10999;51.332;9.458;2022-07-29T15:07:03;28.70;10.00
21676;DHT22;10999;51.332;9.458;2022-07-29T15:09:30;28.90;9.90
21676;DHT22;10999;51.332;9.458;2022-07-29T15:11:56;29.10;11.70
21676;DHT22;10999;51.332;9.458;2022-07-29T15:14:23;29.30;12.00
21676;DHT22;10999;51.332;9.458;2022-07-29T15:16:50;29.30;8.80
21676;DHT22;10999;51.332;9.458;2022-07-29T15:19:18;29.10;9.20
21676;DHT22;10999;51.332;9.458;2022-07-29T15:21:45;29.30;9.50
21676;DHT22;10999;51.332;9.458;2022-07-29T15:24:15;29.20;9.40
21676;DHT22;10999;51.332;9.458;2022-07-29T15:26:43;29.10;8.30
21676;DHT22;10999;51.332;9.458;2022-07-29T15:29:09;29.00;8.30
21676;DHT22;10999;51.332;9.458;2022-07-29T15:31:36;29.00;8.50
21676;DHT22;10999;51.332;9.458;2022-07-29T15:34:03;29.00;10.20
21676;DHT22;10999;51.332;9.458;2022-07-29T15:36:32;29.00;8.50
21676;DHT22;10999;51.332;9.458;2022-07-29T15:39:20;28.90;9.30
21676;DHT22;10999;51.332;9.458;2022-07-29T15:41:48;28.80;9.80
21676;DHT22;10999;51.332;9.458;2022-07-29T15:44:17;28.70;10.80
21676;DHT22;10999;51.332;9.458;2022-07-29T15:46:46;28.60;10.30
21676;DHT22;10999;51.332;9.458;2022-07-29T15:49:33;28.30;12.50
21676;DHT22;10999;51.332;9.458;2022-07-29T15:52:14;28.00;11.40
21676;DHT22;10999;51.332;9.458;2022-07-29T15:54:41;27.90;10.80
21676;DHT22;10999;51.332;9.458;2022-07-29T15:57:09;27.80;10.90
21676;DHT22;10999;51.332;9.458;2022-07-29T15:59:36;27.70;11.70
21676;DHT22;10999;51.332;9.458;2022-07-29T16:02:03;27.70;11.40
21676;DHT22;10999;51.332;9.458;2022-07-29T16:04:30;27.50;10.80
21676;DHT22;10999;51.332;9.458;2022-07-29T16:06:57;27.50;11.40
21676;DHT22;10999;51.332;9.458;2022-07-29T16:09:25;27.50;11.00
21676;DHT22;10999;51.332;9.458;2022-07-29T16:11:52;27.50;10.70
21676;DHT22;10999;51.332;9.458;2022-07-29T16:14:19;27.40;12.70
21676;DHT22;10999;51.332;9.458;2022-07-29T16:16:47;27.40;10.50
21676;DHT22;10999;51.332;9.458;2022-07-29T16:19:14;27.40;11.00
21676;DHT22;10999;51.332;9.458;2022-07-29T16:21:40;27.40;11.90
21676;DHT22;10999;51.332;9.458;2022-07-29T16:24:07;27.50;11.80
21676;DHT22;10999;51.332;9.458;2022-07-29T16:26:34;27.50;11.00
21676;DHT22;10999;51.332;9.458;2022-07-29T16:29:02;27.50;11.00
21676;DHT22;10999;51.332;9.458;2022-07-29T16:31:29;27.50;11.40
21676;DHT22;10999;51.332;9.458;2022-07-29T16:33:56;27.50;11.10
21676;DHT22;10999;51.332;9.458;2022-07-29T16:36:23;27.50;11.00
21676;DHT22;10999;51.332;9.458;2022-07-29T16:38:50;27.50;10.60
21676;DHT22;10999;51.332;9.458;2022-07-29T16:41:17;27.50;12.00
21676;DHT22;10999;51.332;9.458;2022-07-29T16:43:44;27.40;12.10